Terminal Aerodrome Forecast
Issued by NWS Detroit/Pontiac, MI

Home | Current Version | Previous Version | Text Only | Print | Product List | Glossary On
Versions: 1 2 3 4 5 6 7 8 9 10 11 12 13 14 15 16 17
000
FTUS43 KDTX 270523
TAFFNT
TAF
KFNT 270523Z 2706/2806 VRB03KT P6SM BKN200
     FM271300 14005KT P6SM SCT080 BKN120 OVC200
     FM271700 18007KT P6SM SCT050 OVC120 PROB30 2718/2722 5SM SHRA
      OVC030
     FM272300 14005KT P6SM SCT080 OVC120=

USA.gov is the U.S. government's official web portal to all federal, state and local government web resources and services.